Terminal Aerodrome Forecast
Issued by NWS

Home | Current Version | Previous Version | Text Only | Print | Product List | Glossary On
Versions: 1 2 3 4 5 6 7 8 9 10 11 12 13 14 15 16 17 18
000
FTUS44 KJAN 041720
TAFGTR
TAF
KGTR 041720Z 0418/0518 29014G20KT P6SM FEW070
     FM042000 29017G23KT P6SM FEW070
     FM050100 32008KT P6SM SCT050 SCT100
     FM051430 34013G20KT P6SM SKC=

USA.gov is the U.S. government's official web portal to all federal, state and local government web resources and services.